createdAt,value
2023-04-11T00:00:20.377Z,100710.79
2023-04-11T00:02:41.527Z,100706.91
2023-04-11T00:04:39.379Z,100701.41
2023-04-11T00:06:33.927Z,100698.86
2023-04-11T00:08:27.254Z,100694.83
2023-04-11T00:10:20.229Z,100696.18
2023-04-11T00:12:13.192Z,100695.13
2023-04-11T00:14:09.099Z,100691.49
2023-04-11T00:16:03.661Z,100694.60
2023-04-11T00:17:58.635Z,100689.88
2023-04-11T00:19:53.473Z,100691.41
2023-04-11T00:21:46.519Z,100687.82
2023-04-11T00:23:39.571Z,100687.02
2023-04-11T00:25:33.236Z,100685.34
2023-04-11T00:27:26.397Z,100684.63
2023-04-11T00:29:19.336Z,100686.00
2023-04-11T00:31:13.307Z,100689.23
2023-04-11T00:33:06.306Z,100688.10
2023-04-11T00:34:59.514Z,100684.02
2023-04-11T00:36:52.830Z,100680.70
2023-04-11T00:38:48.892Z,100680.21
2023-04-11T00:40:41.939Z,100678.05
2023-04-11T00:42:34.992Z,100675.02
2023-04-11T00:44:27.943Z,100675.23
2023-04-11T00:46:22.008Z,100673.23
2023-04-11T00:48:15.780Z,100674.68
2023-04-11T00:50:09.452Z,100671.64
2023-04-11T00:52:03.574Z,100668.92
2023-04-11T00:53:56.585Z,100665.33
2023-04-11T00:55:50.540Z,100665.72
2023-04-11T00:57:44.814Z,100663.52
2023-04-11T00:59:38.512Z,100661.26
2023-04-11T01:01:36.596Z,100655.91
2023-04-11T01:03:30.421Z,100653.79
2023-04-11T01:05:23.783Z,100649.13
2023-04-11T01:07:18.373Z,100644.21
2023-04-11T01:09:13.058Z,100639.97
2023-04-11T01:11:09.039Z,100634.81
2023-04-11T01:13:02.702Z,100630.86
2023-04-11T01:14:56.784Z,100618.54
2023-04-11T01:16:50.856Z,100623.42
2023-04-11T01:18:43.946Z,100618.71
2023-04-11T01:20:38.553Z,100615.45
2023-04-11T01:22:32.290Z,100610.33
2023-04-11T01:24:28.319Z,100610.75
2023-04-11T01:26:21.991Z,100601.11
2023-04-11T01:28:15.452Z,100600.55
2023-04-11T01:30:09.186Z,100599.68
2023-04-11T01:32:02.373Z,100595.94
2023-04-11T01:33:55.826Z,100595.17
2023-04-11T01:35:49.206Z,100591.63
2023-04-11T01:37:42.465Z,100590.20
2023-04-11T01:39:35.487Z,100584.69
2023-04-11T01:41:30.797Z,100584.46
2023-04-11T01:43:25.274Z,100583.21
2023-04-11T01:45:18.854Z,100581.64
2023-04-11T01:47:11.888Z,100574.88
2023-04-11T01:49:06.641Z,100570.77
2023-04-11T01:50:59.728Z,100570.19
2023-04-11T01:52:52.986Z,100568.39
2023-04-11T01:54:45.933Z,100571.36
2023-04-11T01:56:38.982Z,100565.10
2023-04-11T01:58:32.646Z,100560.68
2023-04-11T02:00:25.800Z,100558.55
2023-04-11T02:02:18.997Z,100559.23
2023-04-11T02:04:12.401Z,100554.12
2023-04-11T02:06:07.834Z,100556.02
2023-04-11T02:08:00.928Z,100550.20
2023-04-11T02:09:53.963Z,100545.36
2023-04-11T02:11:47.174Z,100542.46
2023-04-11T02:13:40.429Z,100539.57
2023-04-11T02:15:33.397Z,100534.52
2023-04-11T02:17:31.405Z,100535.80
2023-04-11T02:19:26.419Z,100529.48
2023-04-11T02:21:19.496Z,100532.20
2023-04-11T02:23:12.930Z,100530.57
2023-04-11T02:25:07.437Z,100528.21
2023-04-11T02:27:01.935Z,100530.65
2023-04-11T02:28:55.109Z,100528.32
2023-04-11T02:30:49.114Z,100525.86
2023-04-11T02:32:46.586Z,100523.66
2023-04-11T02:34:41.496Z,100520.23
2023-04-11T02:36:35.060Z,100519.02
2023-04-11T02:38:28.011Z,100519.19
2023-04-11T02:40:20.963Z,100518.86
2023-04-11T02:42:13.912Z,100513.38
2023-04-11T02:44:07.159Z,100508.62
2023-04-11T02:46:11.695Z,100507.66
2023-04-11T02:48:06.367Z,100507.34
2023-04-11T02:50:01.618Z,100511.70
2023-04-11T02:51:57.884Z,100506.20
2023-04-11T02:53:52.380Z,100501.01
2023-04-11T02:55:45.840Z,100497.60
2023-04-11T02:57:39.410Z,100497.80
2023-04-11T02:59:34.714Z,100489.60
2023-04-11T03:01:28.206Z,100483.81
2023-04-11T03:03:22.270Z,100480.39
2023-04-11T03:05:16.121Z,100477.40
2023-04-11T03:07:12.666Z,100477.70
2023-04-11T03:09:06.103Z,100476.66
2023-04-11T03:10:59.463Z,100471.77
2023-04-11T03:12:55.186Z,100468.22
2023-04-11T03:14:48.139Z,100463.67
2023-04-11T03:16:41.741Z,100454.40
2023-04-11T03:18:35.062Z,100453.27
2023-04-11T03:20:31.067Z,100448.16
2023-04-11T03:22:24.650Z,100443.97
2023-04-11T03:24:17.987Z,100446.39
2023-04-11T03:26:11.137Z,100442.77
2023-04-11T03:28:04.907Z,100439.11
2023-04-11T03:29:58.142Z,100427.30
2023-04-11T03:32:01.156Z,100421.66
2023-04-11T03:33:55.322Z,100420.66
2023-04-11T03:35:49.027Z,100417.83
2023-04-11T03:37:42.071Z,100415.67
2023-04-11T03:39:37.773Z,100417.22
2023-04-11T03:41:30.896Z,100408.95
2023-04-11T03:43:24.267Z,100404.25
2023-04-11T03:45:17.927Z,100404.65
2023-04-11T03:47:11.091Z,100400.81
2023-04-11T03:49:07.716Z,100395.70
2023-04-11T03:51:01.075Z,100393.77
2023-04-11T03:53:02.013Z,100388.42
2023-04-11T03:54:55.173Z,100388.91
2023-04-11T03:56:49.440Z,100387.23
2023-04-11T03:58:46.176Z,100382.16
2023-04-11T04:00:39.431Z,100377.44
2023-04-11T04:02:32.940Z,100369.65
2023-04-11T04:04:27.869Z,100367.64
2023-04-11T04:06:30.412Z,100362.84
2023-04-11T04:08:25.085Z,100358.73
2023-04-11T04:10:18.916Z,100353.83
2023-04-11T04:12:15.042Z,100352.50
2023-04-11T04:14:29.697Z,100351.89
2023-04-11T04:16:22.973Z,100344.91
2023-04-11T04:18:19.381Z,100347.50
2023-04-11T04:20:13.605Z,100345.16
2023-04-11T04:22:17.850Z,100346.94
2023-04-11T04:24:15.326Z,100343.20
2023-04-11T04:26:30.095Z,100343.32
2023-04-11T04:28:33.068Z,100344.46
2023-04-11T04:30:29.120Z,100338.34
2023-04-11T04:32:30.951Z,100335.75
2023-04-11T04:34:29.298Z,100334.55
2023-04-11T04:36:25.162Z,100336.32
2023-04-11T04:38:18.295Z,100337.99
2023-04-11T04:40:16.022Z,100335.52
2023-04-11T04:42:29.875Z,100334.07
2023-04-11T04:44:27.814Z,100328.09
2023-04-11T04:46:23.692Z,100320.94
2023-04-11T04:48:17.622Z,100322.07
2023-04-11T04:50:10.907Z,100314.08
2023-04-11T04:52:04.663Z,100311.46
2023-04-11T04:53:57.853Z,100310.60
2023-04-11T04:55:51.083Z,100310.64
2023-04-11T04:57:44.944Z,100306.40
2023-04-11T04:59:37.991Z,100304.70
2023-04-11T05:01:40.285Z,100302.77
2023-04-11T05:03:36.148Z,100302.15
2023-04-11T05:05:30.565Z,100303.70
2023-04-11T05:07:23.821Z,100299.58
2023-04-11T05:09:18.094Z,100295.72
2023-04-11T05:11:11.386Z,100287.77
2023-04-11T05:13:04.398Z,100282.19
2023-04-11T05:14:57.668Z,100283.34
2023-04-11T05:16:51.363Z,100277.46
2023-04-11T05:18:45.598Z,100272.89
2023-04-11T05:20:38.854Z,100275.61
2023-04-11T05:22:32.175Z,100263.20
2023-04-11T05:24:25.877Z,100256.63
2023-04-11T05:26:19.853Z,100249.39
2023-04-11T05:28:12.795Z,100248.23
2023-04-11T05:30:07.092Z,100249.62
2023-04-11T05:32:02.381Z,100247.16
2023-04-11T05:33:56.874Z,100249.23
2023-04-11T05:35:51.685Z,100239.71
2023-04-11T05:37:45.011Z,100241.65
2023-04-11T05:39:38.373Z,100243.88
2023-04-11T05:41:31.326Z,100242.69
2023-04-11T05:43:24.268Z,100244.05
2023-04-11T05:45:17.323Z,100247.98
2023-04-11T05:47:11.848Z,100242.02
2023-04-11T05:49:04.865Z,100235.23
2023-04-11T05:50:58.523Z,100236.77
2023-04-11T05:52:51.684Z,100231.02
2023-04-11T05:54:44.734Z,100230.10
2023-04-11T05:56:39.836Z,100225.39
2023-04-11T05:58:34.411Z,100224.92
2023-04-11T06:00:31.058Z,100215.19
2023-04-11T06:02:24.335Z,100212.20
2023-04-11T06:04:17.702Z,100208.89
2023-04-11T06:06:10.909Z,100209.46
2023-04-11T06:08:05.778Z,100208.03
2023-04-11T06:09:58.963Z,100206.41
2023-04-11T06:11:52.008Z,100202.52
2023-04-11T06:13:44.957Z,100202.57
2023-04-11T06:15:38.219Z,100201.26
2023-04-11T06:17:31.324Z,100199.34
2023-04-11T06:19:24.425Z,100200.67
2023-04-11T06:21:17.290Z,100200.42
2023-04-11T06:23:10.310Z,100199.67
2023-04-11T06:25:04.084Z,100201.29
2023-04-11T06:26:57.134Z,100204.77
2023-04-11T06:28:51.350Z,100200.50
2023-04-11T06:30:44.252Z,100199.27
2023-04-11T06:32:37.428Z,100201.08
2023-04-11T06:34:30.455Z,100196.48
2023-04-11T06:36:23.405Z,100194.92
2023-04-11T06:38:16.354Z,100191.00
2023-04-11T06:40:09.914Z,100191.02
2023-04-11T06:42:03.892Z,100192.78
2023-04-11T06:43:58.956Z,100191.36
2023-04-11T06:45:52.356Z,100184.74
2023-04-11T06:47:45.334Z,100183.12
2023-04-11T06:49:38.345Z,100177.77
2023-04-11T06:51:31.603Z,100175.41
2023-04-11T06:53:24.654Z,100179.34
2023-04-11T06:55:17.603Z,100173.77
2023-04-11T06:57:10.854Z,100170.71
2023-04-11T06:59:03.807Z,100168.73
2023-04-11T07:00:56.758Z,100169.19
2023-04-11T07:02:50.014Z,100166.59
2023-04-11T07:04:43.436Z,100166.36
2023-04-11T07:06:36.726Z,100162.13
2023-04-11T07:08:29.670Z,100161.15
2023-04-11T07:10:22.937Z,100155.54
2023-04-11T07:12:16.383Z,100156.05
2023-04-11T07:14:09.331Z,100152.09
2023-04-11T07:16:02.618Z,100153.11
2023-04-11T07:17:55.775Z,100150.13
2023-04-11T07:19:48.685Z,100148.94
2023-04-11T07:21:42.152Z,100148.02
2023-04-11T07:23:35.309Z,100146.27
2023-04-11T07:25:31.065Z,100147.35
2023-04-11T07:27:24.682Z,100145.86
2023-04-11T07:29:18.046Z,100145.92
2023-04-11T07:31:13.989Z,100141.71
2023-04-11T07:33:07.834Z,100134.02
2023-04-11T07:35:00.985Z,100127.39
2023-04-11T07:37:01.114Z,100127.89
2023-04-11T07:38:54.261Z,100124.83
2023-04-11T07:40:47.147Z,100116.17
2023-04-11T07:42:42.923Z,100112.76
2023-04-11T07:44:35.885Z,100113.96
2023-04-11T07:46:28.812Z,100106.14
2023-04-11T07:48:21.956Z,100102.91
2023-04-11T07:50:14.825Z,100098.27
2023-04-11T07:52:07.763Z,100099.84
2023-04-11T07:54:00.798Z,100096.34
2023-04-11T07:55:53.787Z,100094.57
2023-04-11T07:57:46.806Z,100095.27
2023-04-11T07:59:40.325Z,100091.38
2023-04-11T08:01:33.309Z,100094.59
2023-04-11T08:03:27.225Z,100091.05
2023-04-11T08:05:20.521Z,100084.73
2023-04-11T08:07:13.696Z,100084.62
2023-04-11T08:09:06.857Z,100086.10
2023-04-11T08:11:00.139Z,100081.34
2023-04-11T08:12:54.111Z,100082.33
2023-04-11T08:14:48.698Z,100078.61
2023-04-11T08:16:43.412Z,100078.45
2023-04-11T08:18:42.410Z,100080.23
2023-04-11T08:20:36.393Z,100080.09
2023-04-11T08:22:30.749Z,100080.00
2023-04-11T08:24:24.669Z,100083.91
2023-04-11T08:26:19.115Z,100083.78
2023-04-11T08:28:13.335Z,100078.94
2023-04-11T08:30:08.748Z,100076.66
2023-04-11T08:32:02.639Z,100074.10
2023-04-11T08:33:58.532Z,100074.48
2023-04-11T08:35:54.429Z,100073.51
2023-04-11T08:37:49.641Z,100069.36
2023-04-11T08:39:44.234Z,100070.91
2023-04-11T08:41:41.260Z,100073.53
2023-04-11T08:43:39.661Z,100070.02
2023-04-11T08:45:35.483Z,100061.21
2023-04-11T08:47:29.675Z,100059.02
2023-04-11T08:49:23.199Z,100054.00
2023-04-11T08:51:25.180Z,100047.89
2023-04-11T08:53:21.795Z,100051.35
2023-04-11T08:55:15.050Z,100045.44
2023-04-11T08:57:08.028Z,100052.87
2023-04-11T08:59:01.147Z,100044.05
2023-04-11T09:00:54.468Z,100044.73
2023-04-11T09:02:59.414Z,100043.80
2023-04-11T09:04:52.775Z,100038.42
2023-04-11T09:07:00.584Z,100038.49
2023-04-11T09:08:54.350Z,100027.48
2023-04-11T09:10:47.532Z,100028.89
2023-04-11T09:12:40.660Z,100024.10
2023-04-11T09:14:34.126Z,100026.56
2023-04-11T09:16:27.361Z,100020.39
2023-04-11T09:18:34.349Z,100024.77
2023-04-11T09:20:30.484Z,100029.77
2023-04-11T09:22:36.228Z,100024.65
2023-04-11T09:24:30.137Z,100020.93
2023-04-11T09:26:30.737Z,100016.14
2023-04-11T09:28:25.634Z,100015.53
2023-04-11T09:30:25.273Z,100015.54
2023-04-11T09:32:37.503Z,100013.00
2023-04-11T09:34:32.171Z,100006.55
2023-04-11T09:36:29.667Z,100006.01
2023-04-11T09:38:35.188Z,100004.55
2023-04-11T09:40:31.944Z,100000.81
2023-04-11T09:42:27.966Z,99995.36
2023-04-11T09:44:34.944Z,99990.68
2023-04-11T09:46:28.239Z,99986.69
2023-04-11T09:48:24.906Z,99986.45
2023-04-11T09:50:28.638Z,99984.58
2023-04-11T09:52:22.106Z,99983.02
2023-04-11T09:54:16.382Z,99979.91
2023-04-11T09:56:10.951Z,99974.18
2023-04-11T09:58:05.965Z,99969.00
2023-04-11T09:59:59.005Z,99961.40
2023-04-11T10:01:53.302Z,99963.94
2023-04-11T10:03:50.679Z,99961.48
2023-04-11T10:05:45.417Z,99958.86
2023-04-11T10:07:46.775Z,99955.92
2023-04-11T10:09:42.492Z,99959.68
2023-04-11T10:11:36.162Z,99954.46
2023-04-11T10:13:35.143Z,99951.00
2023-04-11T10:15:29.129Z,99950.48
2023-04-11T10:17:23.902Z,99951.08
2023-04-11T10:19:17.569Z,99950.65
2023-04-11T10:21:34.075Z,99952.04
2023-04-11T10:23:27.119Z,99947.56
2023-04-11T10:25:21.924Z,99947.50
2023-04-11T10:27:15.909Z,99945.81
2023-04-11T10:29:29.109Z,99945.21
2023-04-11T10:31:22.216Z,99941.98
2023-04-11T10:33:17.899Z,99945.51
2023-04-11T10:35:16.867Z,99943.04
2023-04-11T10:37:11.021Z,99941.26
2023-04-11T10:39:04.397Z,99938.80
2023-04-11T10:41:25.671Z,99937.45
2023-04-11T10:43:21.842Z,99937.77
2023-04-11T10:45:28.091Z,99933.08
2023-04-11T10:47:21.168Z,99937.29
2023-04-11T10:49:40.497Z,99934.05
2023-04-11T10:51:34.484Z,99937.56
2023-04-11T10:53:36.477Z,99941.51
2023-04-11T10:55:32.943Z,99938.30
2023-04-11T10:57:25.978Z,99935.15
2023-04-11T10:59:39.765Z,99932.27
2023-04-11T11:01:42.820Z,99928.88
2023-04-11T11:03:54.778Z,99931.36
2023-04-11T11:05:59.255Z,99929.05
2023-04-11T11:07:53.550Z,99929.75
2023-04-11T11:09:51.412Z,99931.79
2023-04-11T11:11:44.552Z,99931.21
2023-04-11T11:13:48.115Z,99930.89
2023-04-11T11:15:47.860Z,99931.54
2023-04-11T11:17:43.028Z,99933.23
2023-04-11T11:19:36.201Z,99930.16
2023-04-11T11:21:34.751Z,99927.14
2023-04-11T11:23:27.955Z,99930.59
2023-04-11T11:25:21.400Z,99928.80
2023-04-11T11:27:22.841Z,99923.16
2023-04-11T11:29:16.916Z,99921.16
2023-04-11T11:31:09.873Z,99919.45
2023-04-11T11:33:17.939Z,99923.34
2023-04-11T11:35:14.200Z,99923.05
2023-04-11T11:37:07.257Z,99929.21
2023-04-11T11:39:00.707Z,99938.93
2023-04-11T11:40:54.727Z,99939.90
2023-04-11T11:42:49.890Z,99940.46
2023-04-11T11:44:42.885Z,99945.11
2023-04-11T11:46:36.312Z,99942.17
2023-04-11T11:48:29.362Z,99943.09
2023-04-11T11:50:32.474Z,99941.67
2023-04-11T11:52:35.305Z,99948.45
2023-04-11T11:54:28.484Z,99953.81
2023-04-11T11:56:22.239Z,99955.08
2023-04-11T11:58:15.598Z,99956.81
2023-04-11T12:00:10.575Z,99957.14
2023-04-11T12:02:04.642Z,99958.91
2023-04-11T12:03:58.532Z,99955.03
2023-04-11T12:05:56.211Z,99953.69
2023-04-11T12:07:54.678Z,99950.63
2023-04-11T12:09:57.242Z,99948.74
2023-04-11T12:11:54.919Z,99942.88
2023-04-11T12:13:52.885Z,99941.48
2023-04-11T12:15:56.417Z,99941.85
2023-04-11T12:17:55.228Z,99942.77
2023-04-11T12:19:48.318Z,99937.35
2023-04-11T12:21:41.268Z,99937.31
2023-04-11T12:23:34.298Z,99945.30
2023-04-11T12:25:28.370Z,99944.86
2023-04-11T12:27:21.525Z,99941.94
2023-04-11T12:29:14.621Z,99943.73
2023-04-11T12:31:07.657Z,99945.52
2023-04-11T12:33:01.123Z,99948.50
2023-04-11T12:34:54.661Z,99946.35
2023-04-11T12:36:48.004Z,99943.83
2023-04-11T12:38:41.268Z,99947.15
2023-04-11T12:40:34.416Z,99947.65
2023-04-11T12:42:27.849Z,99950.81
2023-04-11T12:44:21.233Z,99952.67
2023-04-11T12:46:14.771Z,99951.40
2023-04-11T12:48:08.555Z,99952.44
2023-04-11T12:50:02.331Z,99954.56
2023-04-11T12:51:55.996Z,99959.77
2023-04-11T12:53:48.944Z,99966.17
2023-04-11T12:55:42.036Z,99969.86
2023-04-11T12:57:36.738Z,99971.88
2023-04-11T12:59:32.371Z,99971.34
2023-04-11T13:01:25.569Z,99978.48
2023-04-11T13:03:18.811Z,99981.14
2023-04-11T13:05:15.299Z,99988.55
2023-04-11T13:07:10.232Z,99991.83
2023-04-11T13:09:05.960Z,99989.70
2023-04-11T13:11:00.734Z,99986.10
2023-04-11T13:12:58.681Z,99979.39
2023-04-11T13:14:53.593Z,99984.60
2023-04-11T13:16:48.464Z,99982.47
2023-04-11T13:18:42.106Z,99982.36
2023-04-11T13:20:35.105Z,99978.40
2023-04-11T13:22:28.174Z,99975.01
2023-04-11T13:24:21.413Z,99973.11
2023-04-11T13:26:14.358Z,99979.89
2023-04-11T13:28:07.611Z,99972.41
2023-04-11T13:30:00.564Z,99976.30
2023-04-11T13:31:53.488Z,99983.70
2023-04-11T13:33:48.376Z,99989.05
2023-04-11T13:35:41.350Z,99992.23
2023-04-11T13:37:34.302Z,99992.05
2023-04-11T13:39:27.347Z,99992.70
2023-04-11T13:41:20.911Z,99992.44
2023-04-11T13:43:13.969Z,99997.12
2023-04-11T13:45:07.772Z,99996.76
2023-04-11T13:47:01.395Z,100003.08
2023-04-11T13:48:54.400Z,100002.56
2023-04-11T13:50:47.497Z,100005.05
2023-04-11T13:52:40.546Z,100003.05
2023-04-11T13:54:33.417Z,100004.46
2023-04-11T13:56:27.264Z,100003.73
2023-04-11T13:58:21.024Z,100008.67
2023-04-11T14:00:14.805Z,100008.17
2023-04-11T14:02:08.540Z,100010.75
2023-04-11T14:04:01.959Z,100010.68
2023-04-11T14:05:55.605Z,100011.62
2023-04-11T14:07:48.639Z,100011.88
2023-04-11T14:09:42.431Z,100012.40
2023-04-11T14:11:35.870Z,100016.17
2023-04-11T14:13:29.026Z,100011.17
2023-04-11T14:15:22.732Z,100013.64
2023-04-11T14:17:16.862Z,100018.54
2023-04-11T14:19:10.840Z,100025.33
2023-04-11T14:21:05.810Z,100028.16
2023-04-11T14:22:58.780Z,100028.56
2023-04-11T14:24:51.826Z,100031.69
2023-04-11T14:26:44.773Z,100030.34
2023-04-11T14:28:37.720Z,100034.33
2023-04-11T14:30:30.955Z,100033.58
2023-04-11T14:32:24.160Z,100034.83
2023-04-11T14:34:18.714Z,100034.75
2023-04-11T14:36:11.612Z,100034.09
2023-04-11T14:38:04.989Z,100035.91
2023-04-11T14:39:58.381Z,100036.08
2023-04-11T14:41:51.425Z,100038.85
2023-04-11T14:43:44.360Z,100046.13
2023-04-11T14:45:37.630Z,100044.77
2023-04-11T14:47:30.603Z,100042.96
2023-04-11T14:49:23.528Z,100046.56
2023-04-11T14:51:16.585Z,100046.79
2023-04-11T14:53:10.053Z,100046.58
2023-04-11T14:55:05.091Z,100045.02
2023-04-11T14:56:59.849Z,100048.05
2023-04-11T14:58:53.295Z,100049.25
2023-04-11T15:00:46.744Z,100046.86
2023-04-11T15:02:39.797Z,100044.98
2023-04-11T15:04:33.047Z,100042.30
2023-04-11T15:06:26.727Z,100044.06
2023-04-11T15:08:19.710Z,100042.60
2023-04-11T15:10:13.943Z,100040.64
2023-04-11T15:12:06.919Z,100041.96
2023-04-11T15:13:59.849Z,100040.87
2023-04-11T15:15:53.713Z,100040.03
2023-04-11T15:17:49.750Z,100043.46
2023-04-11T15:19:42.786Z,100042.60
2023-04-11T15:21:35.981Z,100040.06
2023-04-11T15:23:29.238Z,100040.39
2023-04-11T15:25:23.364Z,100034.40
2023-04-11T15:27:16.425Z,100031.66
2023-04-11T15:29:14.281Z,100029.52
2023-04-11T15:31:12.983Z,100026.45
2023-04-11T15:33:06.569Z,100027.25
2023-04-11T15:34:59.914Z,100020.52
2023-04-11T15:36:52.826Z,100019.31
2023-04-11T15:38:46.513Z,100013.44
2023-04-11T15:40:43.155Z,100008.00
2023-04-11T15:42:43.674Z,100008.18
2023-04-11T15:44:39.839Z,100003.81
2023-04-11T15:46:37.204Z,100008.27
2023-04-11T15:48:35.753Z,100010.32
2023-04-11T15:50:30.120Z,100013.70
2023-04-11T15:52:23.245Z,100016.88
2023-04-11T15:54:16.294Z,100014.87
2023-04-11T15:56:10.350Z,100017.34
2023-04-11T15:58:04.907Z,100017.30
2023-04-11T15:59:58.731Z,100011.57
2023-04-11T16:01:52.336Z,100014.76
2023-04-11T16:03:45.743Z,100011.11
2023-04-11T16:05:41.948Z,100011.77
2023-04-11T16:07:35.636Z,100013.06
2023-04-11T16:09:30.805Z,100013.86
2023-04-11T16:12:00.052Z,100013.86
2023-04-11T16:13:54.614Z,100013.20
2023-04-11T16:15:47.874Z,100009.83
2023-04-11T16:17:41.378Z,100014.84
2023-04-11T16:20:02.405Z,100013.23
2023-04-11T16:21:58.992Z,100012.98
2023-04-11T16:24:08.291Z,100015.67
2023-04-11T16:26:15.207Z,100021.08
2023-04-11T16:28:20.803Z,100018.11
2023-04-11T16:30:14.391Z,100023.46
2023-04-11T16:32:08.480Z,100018.74
2023-04-11T16:34:01.525Z,100019.77
2023-04-11T16:35:55.213Z,100019.55
2023-04-11T16:37:48.244Z,100020.45
2023-04-11T16:39:41.699Z,100021.37
2023-04-11T16:41:38.334Z,100020.45
2023-04-11T16:43:31.794Z,100020.24
2023-04-11T16:45:24.864Z,100019.09
2023-04-11T16:47:18.846Z,100018.89
2023-04-11T16:49:12.506Z,100019.27
2023-04-11T16:51:06.286Z,100019.98
2023-04-11T16:52:59.709Z,100024.97
2023-04-11T16:54:52.756Z,100028.24
2023-04-11T16:56:48.077Z,100032.14
2023-04-11T16:58:41.723Z,100026.34
2023-04-11T17:00:35.086Z,100020.17
2023-04-11T17:02:29.711Z,100018.45
2023-04-11T17:04:23.695Z,100018.81
2023-04-11T17:06:17.258Z,100024.30
2023-04-11T17:08:11.860Z,100028.86
2023-04-11T17:10:10.362Z,100030.97
2023-04-11T17:12:04.046Z,100040.64
2023-04-11T17:13:58.086Z,100042.50
2023-04-11T17:15:54.440Z,100043.98
2023-04-11T17:17:47.567Z,100042.49
2023-04-11T17:19:40.953Z,100047.03
2023-04-11T17:21:33.999Z,100047.48
2023-04-11T17:23:41.399Z,100051.16
2023-04-11T17:25:36.383Z,100052.02
2023-04-11T17:27:30.052Z,100054.82
2023-04-11T17:29:23.590Z,100055.20
2023-04-11T17:31:19.048Z,100058.88
2023-04-11T17:33:12.688Z,100062.02
2023-04-11T17:35:06.757Z,100064.67
2023-04-11T17:36:59.670Z,100063.86
2023-04-11T17:38:54.796Z,100065.40
2023-04-11T17:40:48.275Z,100061.50
2023-04-11T17:42:41.735Z,100065.88
2023-04-11T17:44:35.491Z,100068.27
2023-04-11T17:46:28.558Z,100065.93
2023-04-11T17:48:23.139Z,100061.02
2023-04-11T17:50:17.469Z,100062.91
2023-04-11T17:52:13.028Z,100064.74
2023-04-11T17:54:06.528Z,100065.40
2023-04-11T17:56:08.387Z,100066.59
2023-04-11T17:58:01.402Z,100069.18
2023-04-11T17:59:54.502Z,100068.92
2023-04-11T18:01:48.193Z,100073.91
2023-04-11T18:03:42.330Z,100070.16
2023-04-11T18:05:37.298Z,100076.92
2023-04-11T18:07:30.958Z,100077.71
2023-04-11T18:09:27.584Z,100081.67
2023-04-11T18:11:21.269Z,100083.14
2023-04-11T18:13:14.517Z,100088.04
2023-04-11T18:15:12.815Z,100090.41
2023-04-11T18:17:06.471Z,100091.30
2023-04-11T18:19:00.231Z,100094.09
2023-04-11T18:20:54.190Z,100096.27
2023-04-11T18:22:51.747Z,100098.62
2023-04-11T18:24:45.214Z,100103.84
2023-04-11T18:26:45.700Z,100102.74
2023-04-11T18:28:50.475Z,100106.91
2023-04-11T18:30:49.470Z,100108.66
2023-04-11T18:32:49.784Z,100108.55
2023-04-11T18:34:48.790Z,100111.64
2023-04-11T18:36:48.168Z,100112.64
2023-04-11T18:38:44.646Z,100111.89
2023-04-11T18:40:41.188Z,100120.06
2023-04-11T18:42:34.960Z,100124.52
2023-04-11T18:44:29.803Z,100127.33
2023-04-11T18:46:27.648Z,100129.38
2023-04-11T18:48:23.984Z,100130.20
2023-04-11T18:50:18.746Z,100131.50
2023-04-11T18:52:13.547Z,100132.84
2023-04-11T18:54:07.615Z,100132.21
2023-04-11T18:56:04.553Z,100135.39
2023-04-11T18:58:00.382Z,100137.42
2023-04-11T18:59:56.326Z,100136.84
2023-04-11T19:01:50.636Z,100140.02
2023-04-11T19:03:44.712Z,100139.89
2023-04-11T19:05:39.024Z,100136.92
2023-04-11T19:07:32.482Z,100139.96
2023-04-11T19:09:28.190Z,100139.98
2023-04-11T19:11:22.290Z,100138.16
2023-04-11T19:13:15.834Z,100139.13
2023-04-11T19:15:10.172Z,100139.81
2023-04-11T19:17:03.281Z,100139.99
2023-04-11T19:18:58.052Z,100143.66
2023-04-11T19:20:52.852Z,100139.38
2023-04-11T19:22:46.810Z,100140.55
2023-04-11T19:24:40.397Z,100141.71
2023-04-11T19:26:34.356Z,100138.99
2023-04-11T19:28:27.397Z,100139.36
2023-04-11T19:30:20.656Z,100142.41
2023-04-11T19:32:21.959Z,100136.89
2023-04-11T19:34:18.485Z,100141.85
2023-04-11T19:36:13.628Z,100140.89
2023-04-11T19:38:13.878Z,100137.42
2023-04-11T19:40:17.155Z,100138.46
2023-04-11T19:42:14.035Z,100141.95
2023-04-11T19:44:07.869Z,100142.00
2023-04-11T19:46:04.942Z,100142.30
2023-04-11T19:47:59.234Z,100140.11
2023-04-11T19:49:54.684Z,100138.65
2023-04-11T19:51:52.933Z,100138.48
2023-04-11T19:53:48.719Z,100136.14
2023-04-11T19:55:46.798Z,100138.84
2023-04-11T19:57:41.332Z,100136.16
2023-04-11T19:59:36.336Z,100137.28
2023-04-11T20:01:31.698Z,100141.66
2023-04-11T20:03:25.284Z,100139.03
2023-04-11T20:05:22.463Z,100142.95
2023-04-11T20:07:18.162Z,100142.90
2023-04-11T20:09:13.150Z,100140.77
2023-04-11T20:11:07.590Z,100139.00
2023-04-11T20:13:04.789Z,100140.45
2023-04-11T20:15:00.368Z,100144.19
2023-04-11T20:16:54.384Z,100146.56
2023-04-11T20:18:47.719Z,100149.76
2023-04-11T20:20:40.770Z,100149.73
2023-04-11T20:22:33.926Z,100152.63
2023-04-11T20:24:26.972Z,100150.66
2023-04-11T20:26:20.014Z,100150.38
2023-04-11T20:28:12.967Z,100152.59
2023-04-11T20:30:10.609Z,100150.71
2023-04-11T20:32:03.983Z,100151.04
2023-04-11T20:33:57.127Z,100150.30
2023-04-11T20:35:50.545Z,100150.70
2023-04-11T20:37:43.889Z,100150.91
2023-04-11T20:39:37.207Z,100149.84
2023-04-11T20:41:30.464Z,100157.39
2023-04-11T20:43:25.327Z,100161.44
2023-04-11T20:45:22.018Z,100164.64
2023-04-11T20:47:16.029Z,100162.97
2023-04-11T20:49:09.626Z,100160.85
2023-04-11T20:51:02.905Z,100162.59
2023-04-11T20:52:57.527Z,100160.64
2023-04-11T20:54:53.142Z,100162.09
2023-04-11T20:56:53.112Z,100164.59
2023-04-11T20:58:47.164Z,100167.80
2023-04-11T21:00:40.928Z,100166.34
2023-04-11T21:02:34.077Z,100173.71
2023-04-11T21:04:28.292Z,100171.73
2023-04-11T21:06:21.362Z,100174.03
2023-04-11T21:08:14.382Z,100173.70
2023-04-11T21:10:08.436Z,100177.96
2023-04-11T21:12:02.537Z,100178.46
2023-04-11T21:13:56.650Z,100175.02
2023-04-11T21:15:50.823Z,100177.42
2023-04-11T21:17:45.892Z,100174.17
2023-04-11T21:19:39.424Z,100180.72
2023-04-11T21:21:33.635Z,100181.14
2023-04-11T21:23:26.660Z,100182.68
2023-04-11T21:25:20.025Z,100183.94
2023-04-11T21:27:12.939Z,100186.64
2023-04-11T21:29:05.911Z,100184.50
2023-04-11T21:30:58.910Z,100184.08
2023-04-11T21:32:52.280Z,100179.70
2023-04-11T21:34:45.474Z,100179.28
2023-04-11T21:36:38.417Z,100173.63
2023-04-11T21:38:31.423Z,100176.58
2023-04-11T21:40:24.422Z,100173.46
2023-04-11T21:42:17.468Z,100174.63
2023-04-11T21:44:10.438Z,100173.41
2023-04-11T21:46:03.476Z,100179.58
2023-04-11T21:47:56.550Z,100181.45
2023-04-11T21:49:49.876Z,100179.30
2023-04-11T21:51:42.834Z,100184.33
2023-04-11T21:53:35.769Z,100188.95
2023-04-11T21:55:28.716Z,100193.37
2023-04-11T21:57:21.778Z,100192.65
2023-04-11T21:59:14.720Z,100192.48